createdAt,value
2022-09-28T00:01:15.169Z,98787.84
2022-09-28T00:03:42.590Z,98785.91
2022-09-28T00:06:12.645Z,98776.66
2022-09-28T00:08:40.723Z,98790.91
2022-09-28T00:11:12.362Z,98787.31
2022-09-28T00:13:40.381Z,98777.97
2022-09-28T00:16:11.340Z,98771.78
2022-09-28T00:18:38.544Z,98770.91
2022-09-28T00:21:08.153Z,98766.03
2022-09-28T00:23:56.472Z,98764.75
2022-09-28T00:26:24.318Z,98752.38
2022-09-28T00:28:57.016Z,98759.31
2022-09-28T00:31:25.274Z,98751.03
2022-09-28T00:33:56.873Z,98749.44
2022-09-28T00:36:27.020Z,98746.63
2022-09-28T00:38:56.549Z,98740.97
2022-09-28T00:41:25.947Z,98735.88
2022-09-28T00:43:54.277Z,98737.16
2022-09-28T00:46:32.640Z,98732.28
2022-09-28T00:49:07.556Z,98733.66
2022-09-28T00:51:38.717Z,98725.28
2022-09-28T00:54:07.635Z,98719.53
2022-09-28T00:56:40.346Z,98709.78
2022-09-28T00:59:09.428Z,98724.31
2022-09-28T01:01:37.527Z,98700.63
2022-09-28T01:04:06.078Z,98718.13
2022-09-28T01:06:37.080Z,98719.41
2022-09-28T01:09:07.796Z,98713.94
2022-09-28T01:11:37.867Z,98713.34
2022-09-28T01:14:10.334Z,98711.00
2022-09-28T01:17:26.615Z,98707.03
2022-09-28T01:20:16.138Z,98704.81
2022-09-28T01:22:55.409Z,98696.53
2022-09-28T01:25:54.500Z,98690.34
2022-09-28T01:28:25.786Z,98683.06
2022-09-28T01:31:03.455Z,98690.56
2022-09-28T01:34:19.439Z,98686.06
2022-09-28T01:36:51.172Z,98677.22
2022-09-28T01:39:24.225Z,98669.03
2022-09-28T01:41:54.560Z,98673.53
2022-09-28T01:44:24.459Z,98674.31
2022-09-28T01:46:54.443Z,98667.88
2022-09-28T01:49:31.323Z,98671.72
2022-09-28T01:52:02.572Z,98641.47
2022-09-28T01:54:45.566Z,98652.63
2022-09-28T01:57:15.607Z,98652.47
2022-09-28T01:59:50.951Z,98657.16
2022-09-28T02:02:24.364Z,98654.59
2022-09-28T02:05:01.977Z,98653.41
2022-09-28T02:07:38.500Z,98654.09
2022-09-28T02:10:20.025Z,98643.59
2022-09-28T02:12:52.012Z,98646.13
2022-09-28T02:15:39.268Z,98638.19
2022-09-28T02:18:06.740Z,98631.94
2022-09-28T02:20:36.648Z,98633.19
2022-09-28T02:23:04.792Z,98622.69
2022-09-28T02:25:41.739Z,98608.31
2022-09-28T02:28:13.757Z,98615.28
2022-09-28T02:30:43.461Z,98612.66
2022-09-28T02:33:23.794Z,98578.69
2022-09-28T02:35:51.544Z,98591.63
2022-09-28T02:38:20.668Z,98596.66
2022-09-28T02:41:16.827Z,98583.84
2022-09-28T02:43:51.723Z,98592.22
2022-09-28T02:46:38.554Z,98590.38
2022-09-28T02:50:11.756Z,98571.34
2022-09-28T02:52:47.868Z,98587.44
2022-09-28T02:55:40.527Z,98579.63
2022-09-28T02:58:24.612Z,98577.31
2022-09-28T03:01:01.759Z,98571.91
2022-09-28T03:03:37.574Z,98572.72
2022-09-28T03:06:11.358Z,98574.69
2022-09-28T03:08:52.188Z,98572.28
2022-09-28T03:11:28.965Z,98565.25
2022-09-28T03:13:56.626Z,98571.16
2022-09-28T03:16:32.246Z,98574.03
2022-09-28T03:18:59.531Z,98564.50
2022-09-28T03:21:26.592Z,98565.84
2022-09-28T03:23:53.597Z,98560.25
2022-09-28T03:26:20.643Z,98562.16
2022-09-28T03:28:47.700Z,98556.31
2022-09-28T03:31:21.317Z,98563.75
2022-09-28T03:33:48.364Z,98554.19
2022-09-28T03:36:15.586Z,98554.19
2022-09-28T03:38:43.042Z,98533.72
2022-09-28T03:41:11.050Z,98539.59
2022-09-28T03:43:41.102Z,98551.38
2022-09-28T03:46:08.427Z,98543.44
2022-09-28T03:48:41.564Z,98542.88
2022-09-28T03:51:11.544Z,98523.78
2022-09-28T03:53:40.159Z,98524.66
2022-09-28T03:56:12.138Z,98534.34
2022-09-28T03:58:39.743Z,98531.75
2022-09-28T04:01:14.142Z,98497.34
2022-09-28T04:03:45.805Z,98517.53
2022-09-28T04:06:13.750Z,98518.31
2022-09-28T04:08:40.920Z,98510.25
2022-09-28T04:11:09.040Z,98507.38
2022-09-28T04:13:37.323Z,98484.13
2022-09-28T04:16:06.673Z,98499.16
2022-09-28T04:18:35.367Z,98504.88
2022-09-28T04:21:22.140Z,98497.97
2022-09-28T04:23:54.775Z,98488.16
2022-09-28T04:26:26.715Z,98487.97
2022-09-28T04:29:12.830Z,98497.84
2022-09-28T04:31:45.125Z,98494.31
2022-09-28T04:34:19.416Z,98483.81
2022-09-28T04:36:47.448Z,98480.50
2022-09-28T04:39:16.259Z,98488.31
2022-09-28T04:41:48.036Z,98487.06
2022-09-28T04:44:15.965Z,98476.03
2022-09-28T04:46:43.143Z,98474.47
2022-09-28T04:49:28.291Z,98472.66
2022-09-28T04:52:18.828Z,98465.78
2022-09-28T04:54:48.829Z,98481.81
2022-09-28T04:57:16.686Z,98475.94
2022-09-28T04:59:43.864Z,98475.66
2022-09-28T05:02:12.055Z,98449.19
2022-09-28T05:04:58.953Z,98467.31
2022-09-28T05:07:35.903Z,98459.22
2022-09-28T05:10:05.725Z,98444.50
2022-09-28T05:12:33.604Z,98470.22
2022-09-28T05:15:00.937Z,98468.31
2022-09-28T05:17:28.588Z,98464.16
2022-09-28T05:20:21.466Z,98459.16
2022-09-28T05:22:48.749Z,98462.78
2022-09-28T05:25:15.828Z,98456.72
2022-09-28T05:28:06.984Z,98453.47
2022-09-28T05:31:12.162Z,98446.88
2022-09-28T05:33:59.482Z,98441.03
2022-09-28T05:36:27.967Z,98430.69
2022-09-28T05:38:55.090Z,98451.25
2022-09-28T05:41:22.206Z,98444.41
2022-09-28T05:43:51.504Z,98442.78
2022-09-28T05:46:20.285Z,98441.91
2022-09-28T05:48:48.359Z,98434.94
2022-09-28T05:51:15.466Z,98424.00
2022-09-28T05:53:42.574Z,98427.81
2022-09-28T05:56:09.945Z,98425.09
2022-09-28T05:58:40.609Z,98423.91
2022-09-28T06:01:08.879Z,98427.22
2022-09-28T06:03:35.992Z,98423.22
2022-09-28T06:06:03.098Z,98426.47
2022-09-28T06:08:35.761Z,98421.34
2022-09-28T06:11:25.125Z,98415.00
2022-09-28T06:13:55.819Z,98413.44
2022-09-28T06:16:24.264Z,98423.31
2022-09-28T06:18:51.743Z,98412.69
2022-09-28T06:21:34.351Z,98404.56
2022-09-28T06:24:02.078Z,98413.31
2022-09-28T06:26:29.448Z,98420.28
2022-09-28T06:28:56.528Z,98425.91
2022-09-28T06:31:26.671Z,98424.84
2022-09-28T06:33:54.564Z,98432.31
2022-09-28T06:36:22.328Z,98425.81
2022-09-28T06:38:50.114Z,98427.22
2022-09-28T06:41:17.835Z,98434.72
2022-09-28T06:43:48.082Z,98429.22
2022-09-28T06:46:33.332Z,98428.47
2022-09-28T06:49:30.338Z,98425.66
2022-09-28T06:52:09.176Z,98427.44
2022-09-28T06:54:56.100Z,98426.16
2022-09-28T06:57:30.024Z,98407.75
2022-09-28T06:59:57.078Z,98419.16
2022-09-28T07:02:24.160Z,98416.13
2022-09-28T07:04:51.236Z,98417.31
2022-09-28T07:07:50.494Z,98423.91
2022-09-28T07:10:30.665Z,98409.47
2022-09-28T07:13:49.839Z,98406.09
2022-09-28T07:16:22.873Z,98406.06
2022-09-28T07:18:53.869Z,98397.59
2022-09-28T07:21:28.755Z,98396.16
2022-09-28T07:24:00.044Z,98403.72
2022-09-28T07:26:33.950Z,98401.81
2022-09-28T07:29:15.573Z,98400.34
2022-09-28T07:32:17.470Z,98390.91
2022-09-28T07:35:14.131Z,98415.28
2022-09-28T07:37:47.821Z,98415.66
2022-09-28T07:40:33.785Z,98418.75
2022-09-28T07:43:05.829Z,98399.34
2022-09-28T07:45:35.943Z,98411.06
2022-09-28T07:48:03.960Z,98403.13
2022-09-28T07:50:56.710Z,98409.94
2022-09-28T07:53:41.295Z,98404.16
2022-09-28T07:56:26.767Z,98395.25
2022-09-28T07:58:57.738Z,98396.06
2022-09-28T08:01:40.136Z,98408.06
2022-09-28T08:04:10.160Z,98399.00
2022-09-28T08:06:40.544Z,98396.25
2022-09-28T08:09:09.804Z,98398.22
2022-09-28T08:11:59.699Z,98396.25
2022-09-28T08:14:53.003Z,98377.78
2022-09-28T08:17:35.155Z,98394.41
2022-09-28T08:20:25.126Z,98392.91
2022-09-28T08:22:53.363Z,98385.75
2022-09-28T08:25:21.116Z,98394.47
2022-09-28T08:27:48.396Z,98386.50
2022-09-28T08:30:15.945Z,98381.59
2022-09-28T08:33:00.238Z,98380.84
2022-09-28T08:35:42.613Z,98374.88
2022-09-28T08:38:22.934Z,98386.47
2022-09-28T08:41:44.280Z,98384.28
2022-09-28T08:44:25.332Z,98379.03
2022-09-28T08:48:20.044Z,98386.47
2022-09-28T08:51:18.361Z,98380.31
2022-09-28T08:54:18.631Z,98370.06
2022-09-28T08:56:59.602Z,98371.66
2022-09-28T08:59:46.251Z,98348.63
2022-09-28T09:02:25.826Z,98368.00
2022-09-28T09:05:15.012Z,98351.66
2022-09-28T09:08:13.734Z,98362.59
2022-09-28T09:10:57.910Z,98370.97
2022-09-28T09:13:38.787Z,98368.00
2022-09-28T09:16:37.140Z,98371.09
2022-09-28T09:19:40.213Z,98371.91
2022-09-28T09:22:34.590Z,98373.31
2022-09-28T09:25:18.275Z,98370.69
2022-09-28T09:27:57.755Z,98372.50
2022-09-28T09:30:31.331Z,98368.25
2022-09-28T09:33:23.132Z,98367.66
2022-09-28T09:36:33.038Z,98373.78
2022-09-28T09:39:35.305Z,98384.69
2022-09-28T09:42:56.996Z,98389.97
2022-09-28T09:46:06.604Z,98391.22
2022-09-28T09:49:20.577Z,98385.28
2022-09-28T09:52:06.908Z,98385.31
2022-09-28T09:55:00.684Z,98378.22
2022-09-28T09:57:47.278Z,98354.44
2022-09-28T10:00:32.401Z,98379.00
2022-09-28T10:03:29.357Z,98376.56
2022-09-28T10:06:11.362Z,98384.25
2022-09-28T10:08:49.035Z,98385.03
2022-09-28T10:11:27.641Z,98386.97
2022-09-28T10:13:56.968Z,98387.13
2022-09-28T10:16:39.684Z,98397.47
2022-09-28T10:19:13.615Z,98396.28
2022-09-28T10:22:02.701Z,98394.25
2022-09-28T10:24:40.279Z,98391.41
2022-09-28T10:27:27.958Z,98394.31
2022-09-28T10:30:02.189Z,98395.13
2022-09-28T10:32:40.506Z,98391.06
2022-09-28T10:35:17.010Z,98386.38
2022-09-28T10:38:04.841Z,98394.50
2022-09-28T10:40:55.958Z,98381.88
2022-09-28T10:44:06.274Z,98382.50
2022-09-28T10:46:43.366Z,98389.03
2022-09-28T10:49:18.796Z,98387.97
2022-09-28T10:51:57.632Z,98389.78
2022-09-28T10:54:31.939Z,98382.31
2022-09-28T10:57:00.382Z,98386.59
2022-09-28T10:59:47.632Z,98366.84
2022-09-28T11:02:40.394Z,98375.44
2022-09-28T11:05:28.025Z,98370.00
2022-09-28T11:08:00.761Z,98373.09
2022-09-28T11:10:34.920Z,98365.56
2022-09-28T11:13:10.422Z,98378.53
2022-09-28T11:15:43.389Z,98377.50
2022-09-28T11:18:32.522Z,98386.22
2022-09-28T11:21:24.260Z,98391.06
2022-09-28T11:24:22.018Z,98389.38
2022-09-28T11:26:54.452Z,98394.50
2022-09-28T11:29:37.406Z,98392.47
2022-09-28T11:32:39.465Z,98389.88
2022-09-28T11:36:14.019Z,98396.41
2022-09-28T11:38:47.448Z,98396.38
2022-09-28T11:41:48.468Z,98388.66
2022-09-28T11:44:38.792Z,98381.56
2022-09-28T11:47:49.933Z,98385.47
2022-09-28T11:50:27.067Z,98397.22
2022-09-28T11:53:03.920Z,98391.13
2022-09-28T11:55:36.362Z,98397.00
2022-09-28T11:58:15.386Z,98399.66
2022-09-28T12:01:11.453Z,98395.19
2022-09-28T12:04:11.321Z,98393.97
2022-09-28T12:06:46.876Z,98388.28
2022-09-28T12:09:27.376Z,98397.28
2022-09-28T12:12:21.689Z,98389.53
2022-09-28T12:14:57.271Z,98403.31
2022-09-28T12:17:37.178Z,98405.38
2022-09-28T12:20:22.811Z,98398.03
2022-09-28T12:23:15.434Z,98402.03
2022-09-28T12:25:55.395Z,98404.06
2022-09-28T12:28:31.628Z,98403.31
2022-09-28T12:31:12.047Z,98408.34
2022-09-28T12:33:41.438Z,98395.88
2022-09-28T12:36:08.673Z,98411.75
2022-09-28T12:38:54.068Z,98413.78
2022-09-28T12:41:33.712Z,98405.44
2022-09-28T12:44:18.943Z,98410.75
2022-09-28T12:47:05.597Z,98402.88
2022-09-28T12:50:36.592Z,98415.94
2022-09-28T12:52:38.614Z,98413.88
2022-09-28T12:55:24.829Z,98406.97
2022-09-28T12:58:15.297Z,98404.56
2022-09-28T13:01:12.276Z,98397.28
2022-09-28T13:03:55.120Z,98405.00
2022-09-28T13:06:49.883Z,98414.56
2022-09-28T13:09:21.693Z,98405.00
2022-09-28T13:12:13.315Z,98406.44
2022-09-28T13:15:28.710Z,98415.13
2022-09-28T13:18:05.107Z,98393.78
2022-09-28T13:20:57.189Z,98406.59
2022-09-28T13:23:35.679Z,98410.03
2022-09-28T13:26:11.092Z,98396.41
2022-09-28T13:28:39.873Z,98407.84
2022-09-28T13:31:08.093Z,98391.59
